createdAt,value
2023-04-10T00:01:06.631Z,93.10
2023-04-10T00:03:38.298Z,93.20
2023-04-10T00:06:09.713Z,93.00
2023-04-10T00:08:40.754Z,93.20
2023-04-10T00:11:11.741Z,93.20
2023-04-10T00:13:42.962Z,93.20
2023-04-10T00:16:14.434Z,93.10
2023-04-10T00:18:45.454Z,93.00
2023-04-10T00:21:16.419Z,92.90
2023-04-10T00:23:47.630Z,92.40
2023-04-10T00:26:19.085Z,92.10
2023-04-10T00:28:50.487Z,91.80
2023-04-10T00:31:21.844Z,91.60
2023-04-10T00:33:53.270Z,91.90
2023-04-10T00:36:24.392Z,91.30
2023-04-10T00:38:55.387Z,91.00
2023-04-10T00:41:26.585Z,90.80
2023-04-10T00:44:01.865Z,90.70
2023-04-10T00:46:36.378Z,90.50
2023-04-10T00:49:08.037Z,90.50
2023-04-10T00:51:40.419Z,90.30
2023-04-10T00:54:13.198Z,90.60
2023-04-10T00:56:44.385Z,90.20
2023-04-10T00:59:15.939Z,90.30
2023-04-10T01:01:47.142Z,90.10
2023-04-10T01:04:19.022Z,90.10
2023-04-10T01:07:01.754Z,90.20
2023-04-10T01:09:52.944Z,89.60
2023-04-10T01:12:26.237Z,89.30
2023-04-10T01:15:08.575Z,89.30
2023-04-10T01:17:48.218Z,89.20
2023-04-10T01:20:27.546Z,89.00
2023-04-10T01:23:15.897Z,89.00
2023-04-10T01:26:01.120Z,89.30
2023-04-10T01:28:34.502Z,89.10
2023-04-10T01:31:07.107Z,88.70
2023-04-10T01:33:43.406Z,89.00
2023-04-10T01:36:16.810Z,88.50
2023-04-10T01:38:49.113Z,88.60
2023-04-10T01:41:22.013Z,88.50
2023-04-10T01:43:54.902Z,88.30
2023-04-10T01:46:27.731Z,87.80
2023-04-10T01:49:00.709Z,87.60
2023-04-10T01:51:33.688Z,87.60
2023-04-10T01:54:07.238Z,87.20
2023-04-10T01:56:39.072Z,86.30
2023-04-10T01:59:10.213Z,86.60
2023-04-10T02:01:41.294Z,85.00
2023-04-10T02:04:12.671Z,86.00
2023-04-10T02:07:04.822Z,86.20
2023-04-10T02:09:56.866Z,85.70
2023-04-10T02:12:33.085Z,85.20
2023-04-10T02:15:07.599Z,84.60
2023-04-10T02:17:40.101Z,84.60
2023-04-10T02:20:13.095Z,84.10
2023-04-10T02:22:47.905Z,83.30
2023-04-10T02:25:19.575Z,83.00
2023-04-10T02:27:50.652Z,82.90
2023-04-10T02:30:21.756Z,82.30
2023-04-10T02:32:53.252Z,81.50
2023-04-10T02:35:25.425Z,81.10
2023-04-10T02:37:56.665Z,81.30
2023-04-10T02:40:31.269Z,81.00
2023-04-10T02:43:05.148Z,80.60
2023-04-10T02:45:36.761Z,80.10
2023-04-10T02:48:09.079Z,80.30
2023-04-10T02:50:40.078Z,78.50
2023-04-10T02:53:11.006Z,78.50
2023-04-10T02:55:42.060Z,78.80
2023-04-10T02:58:15.009Z,77.80
2023-04-10T03:00:47.118Z,77.90
2023-04-10T03:03:18.252Z,77.60
2023-04-10T03:05:50.633Z,77.20
2023-04-10T03:08:22.399Z,75.60
2023-04-10T03:10:53.604Z,74.50
2023-04-10T03:13:27.936Z,74.60
2023-04-10T03:15:59.693Z,73.40
2023-04-10T03:18:31.353Z,72.60
2023-04-10T03:21:03.174Z,72.60
2023-04-10T03:23:34.161Z,72.60
2023-04-10T03:26:05.826Z,72.90
2023-04-10T03:28:37.821Z,71.80
2023-04-10T03:31:09.288Z,71.80
2023-04-10T03:33:40.301Z,70.90
2023-04-10T03:36:12.625Z,70.90
2023-04-10T03:38:44.005Z,70.90
2023-04-10T03:41:15.256Z,70.90
2023-04-10T03:43:46.563Z,70.90
2023-04-10T03:46:18.086Z,70.00
2023-04-10T03:48:50.619Z,69.30
2023-04-10T03:51:21.663Z,69.60
2023-04-10T03:53:53.088Z,69.50
2023-04-10T03:56:24.761Z,68.90
2023-04-10T03:58:56.423Z,68.90
2023-04-10T04:01:27.514Z,68.10
2023-04-10T04:03:59.737Z,68.10
2023-04-10T04:06:32.833Z,67.40
2023-04-10T04:09:03.892Z,67.60
2023-04-10T04:11:35.260Z,67.00
2023-04-10T04:14:06.249Z,67.00
2023-04-10T04:16:37.251Z,67.30
2023-04-10T04:19:08.263Z,66.70
2023-04-10T04:21:39.483Z,64.70
2023-04-10T04:24:10.639Z,65.50
2023-04-10T04:26:41.937Z,65.70
2023-04-10T04:29:13.617Z,65.80
2023-04-10T04:31:44.796Z,65.80
2023-04-10T04:34:15.809Z,65.30
2023-04-10T04:36:47.068Z,65.40
2023-04-10T04:39:18.645Z,65.80
2023-04-10T04:41:50.209Z,66.00
2023-04-10T04:44:22.105Z,65.80
2023-04-10T04:46:53.178Z,65.80
2023-04-10T04:49:24.242Z,65.60
2023-04-10T04:51:55.173Z,64.60
2023-04-10T04:54:27.374Z,64.20
2023-04-10T04:56:58.863Z,63.90
2023-04-10T04:59:30.384Z,64.80
2023-04-10T05:02:01.831Z,64.80
2023-04-10T05:04:33.252Z,64.40
2023-04-10T05:07:04.506Z,63.30
2023-04-10T05:09:35.428Z,63.60
2023-04-10T05:12:06.647Z,62.80
2023-04-10T05:14:37.606Z,63.00
2023-04-10T05:17:08.535Z,61.80
2023-04-10T05:19:39.536Z,61.60
2023-04-10T05:22:10.473Z,61.50
2023-04-10T05:24:41.434Z,60.30
2023-04-10T05:27:12.545Z,60.10
2023-04-10T05:29:43.587Z,61.50
2023-04-10T05:32:14.558Z,60.90
2023-04-10T05:34:45.519Z,61.60
2023-04-10T05:37:16.628Z,61.60
2023-04-10T05:39:47.642Z,60.60
2023-04-10T05:42:18.960Z,60.20
2023-04-10T05:44:49.937Z,60.40
2023-04-10T05:47:21.359Z,59.70
2023-04-10T05:49:52.618Z,59.40
2023-04-10T05:52:24.247Z,59.90
2023-04-10T05:54:55.622Z,60.00
2023-04-10T05:57:27.868Z,60.30
2023-04-10T05:59:58.811Z,60.70
2023-04-10T06:02:30.082Z,61.30
2023-04-10T06:05:01.195Z,60.90
2023-04-10T06:07:33.990Z,60.80
2023-04-10T06:10:05.035Z,60.10
2023-04-10T06:12:36.203Z,60.10
2023-04-10T06:15:08.071Z,60.00
2023-04-10T06:17:40.852Z,59.50
2023-04-10T06:20:12.805Z,59.90
2023-04-10T06:22:43.794Z,60.20
2023-04-10T06:25:14.972Z,60.00
2023-04-10T06:27:46.191Z,59.30
2023-04-10T06:30:17.568Z,59.70
2023-04-10T06:32:48.542Z,59.40
2023-04-10T06:35:19.564Z,58.90
2023-04-10T06:37:50.792Z,58.50
2023-04-10T06:40:22.013Z,58.60
2023-04-10T06:42:53.009Z,59.00
2023-04-10T06:45:24.397Z,58.80
2023-04-10T06:47:55.611Z,58.30
2023-04-10T06:50:26.718Z,58.30
2023-04-10T06:52:59.110Z,58.40
2023-04-10T06:55:30.153Z,58.10
2023-04-10T07:00:32.965Z,58.00
2023-04-10T07:03:04.203Z,57.70
2023-04-10T07:05:35.274Z,57.70
2023-04-10T07:08:06.680Z,57.70
2023-04-10T07:10:37.903Z,57.50
2023-04-10T07:13:09.072Z,57.70
2023-04-10T07:15:40.322Z,57.80
2023-04-10T07:18:11.288Z,57.20
2023-04-10T07:20:42.596Z,57.30
2023-04-10T07:23:33.741Z,57.20
2023-04-10T07:26:04.755Z,57.30
2023-04-10T07:28:35.960Z,56.80
2023-04-10T07:31:07.562Z,57.00
2023-04-10T07:33:38.773Z,56.60
2023-04-10T07:36:10.380Z,56.40
2023-04-10T07:38:41.545Z,56.30
2023-04-10T07:41:13.214Z,55.90
2023-04-10T07:43:44.199Z,55.90
2023-04-10T07:46:16.058Z,56.10
2023-04-10T07:48:48.664Z,56.40
2023-04-10T07:51:19.625Z,56.50
2023-04-10T07:53:50.817Z,55.80
2023-04-10T07:56:22.734Z,56.30
2023-04-10T07:58:55.051Z,56.00
2023-04-10T08:01:27.271Z,55.60
2023-04-10T08:03:58.772Z,56.30
2023-04-10T08:06:29.977Z,56.00
2023-04-10T08:09:01.202Z,56.40
2023-04-10T08:11:38.683Z,56.20
2023-04-10T08:14:09.858Z,56.20
2023-04-10T08:16:41.312Z,55.40
2023-04-10T08:19:12.487Z,55.40
2023-04-10T08:21:43.865Z,55.90
2023-04-10T08:24:15.102Z,55.70
2023-04-10T08:26:46.431Z,56.20
2023-04-10T08:29:17.609Z,55.80
2023-04-10T08:31:49.518Z,55.40
2023-04-10T08:34:21.392Z,56.00
2023-04-10T08:36:52.747Z,55.40
2023-04-10T08:39:23.730Z,54.70
2023-04-10T08:41:55.527Z,53.70
2023-04-10T08:44:26.500Z,54.00
2023-04-10T08:47:00.173Z,54.00
2023-04-10T08:49:33.833Z,54.00
2023-04-10T08:52:06.887Z,54.20
2023-04-10T08:54:40.167Z,54.50
2023-04-10T08:57:14.100Z,54.30
2023-04-10T08:59:45.824Z,55.10
2023-04-10T09:02:17.485Z,55.10
2023-04-10T09:04:53.195Z,54.70
2023-04-10T09:07:25.382Z,54.00
2023-04-10T09:09:56.335Z,54.40
2023-04-10T09:12:27.483Z,54.60
2023-04-10T09:14:59.847Z,54.60
2023-04-10T09:17:31.194Z,54.70
2023-04-10T09:20:02.422Z,54.80
2023-04-10T09:22:35.076Z,55.20
2023-04-10T09:25:07.283Z,55.10
2023-04-10T09:27:40.683Z,54.80
2023-04-10T09:30:12.145Z,53.90
2023-04-10T09:32:45.243Z,54.60
2023-04-10T09:35:17.886Z,54.50
2023-04-10T09:37:49.364Z,55.10
2023-04-10T09:40:25.613Z,57.30
2023-04-10T09:43:00.562Z,58.10
2023-04-10T09:45:34.331Z,58.30
2023-04-10T09:48:10.640Z,59.40
2023-04-10T09:50:42.711Z,59.10
2023-04-10T09:53:18.361Z,59.50
2023-04-10T09:55:50.444Z,59.60
2023-04-10T09:58:21.518Z,59.50
2023-04-10T10:00:53.232Z,59.90
2023-04-10T10:03:25.696Z,59.90
2023-04-10T10:05:57.170Z,59.50
2023-04-10T10:08:29.321Z,59.40
2023-04-10T10:11:02.810Z,59.70
2023-04-10T10:13:42.352Z,59.90
2023-04-10T10:16:32.089Z,60.00
2023-04-10T10:19:22.271Z,60.00
2023-04-10T10:21:54.384Z,60.30
2023-04-10T10:24:27.586Z,60.60
2023-04-10T10:26:59.147Z,60.90
2023-04-10T10:29:32.548Z,61.10
2023-04-10T10:32:05.334Z,61.10
2023-04-10T10:34:38.108Z,61.30
2023-04-10T10:37:09.709Z,61.30
2023-04-10T10:40:15.396Z,61.40
2023-04-10T10:43:13.386Z,61.60
2023-04-10T10:45:58.479Z,61.80
2023-04-10T10:48:29.732Z,62.20
2023-04-10T10:51:02.860Z,63.20
2023-04-10T10:53:38.717Z,62.50
2023-04-10T10:56:24.172Z,62.70
2023-04-10T10:58:59.451Z,62.70
2023-04-10T11:01:30.571Z,62.90
2023-04-10T11:04:01.866Z,63.00
2023-04-10T11:06:54.448Z,63.20
2023-04-10T11:09:55.822Z,63.20
2023-04-10T11:12:27.623Z,64.00
2023-04-10T11:15:06.238Z,63.30
2023-04-10T11:17:54.993Z,63.20
2023-04-10T11:20:29.746Z,63.30
2023-04-10T11:23:12.782Z,63.20
2023-04-10T11:25:56.959Z,63.00
2023-04-10T11:28:41.252Z,62.90
2023-04-10T11:31:23.624Z,63.00
2023-04-10T11:34:08.926Z,62.70
2023-04-10T11:36:41.900Z,62.60
2023-04-10T11:39:15.178Z,63.00
2023-04-10T11:41:47.920Z,63.00
2023-04-10T11:44:37.804Z,63.20
2023-04-10T11:47:08.872Z,63.50
2023-04-10T11:49:39.860Z,63.50
2023-04-10T11:52:10.808Z,63.80
2023-04-10T11:54:44.516Z,64.00
2023-04-10T11:57:15.530Z,64.20
2023-04-10T11:59:48.866Z,64.30
2023-04-10T12:02:19.904Z,64.60
2023-04-10T12:04:53.394Z,64.80
2023-04-10T12:07:27.627Z,65.70
2023-04-10T12:10:01.676Z,65.00
2023-04-10T12:12:39.502Z,64.90
2023-04-10T12:15:28.911Z,65.00
2023-04-10T12:18:00.226Z,64.90
2023-04-10T12:20:31.237Z,65.10
2023-04-10T12:23:03.655Z,65.00
2023-04-10T12:25:36.231Z,65.00
2023-04-10T12:28:07.238Z,64.90
2023-04-10T12:30:38.223Z,64.90
2023-04-10T12:33:10.072Z,64.80
2023-04-10T12:35:41.768Z,65.00
2023-04-10T12:38:13.201Z,65.20
2023-04-10T12:41:00.790Z,65.40
2023-04-10T12:43:36.114Z,65.50
2023-04-10T12:46:08.378Z,65.70
2023-04-10T12:48:39.436Z,65.90
2023-04-10T12:51:10.611Z,66.10
2023-04-10T12:53:48.643Z,66.30
2023-04-10T12:56:21.185Z,66.40
2023-04-10T12:58:52.422Z,66.90
2023-04-10T13:01:23.656Z,66.90
2023-04-10T13:03:54.905Z,67.20
2023-04-10T13:06:25.920Z,67.20
2023-04-10T13:08:57.392Z,67.30
2023-04-10T13:11:28.367Z,67.60
2023-04-10T13:13:59.391Z,67.60
2023-04-10T13:16:30.394Z,67.90
2023-04-10T13:19:01.570Z,68.90
2023-04-10T13:21:32.524Z,67.90
2023-04-10T13:24:03.554Z,67.80
2023-04-10T13:26:34.535Z,67.80
2023-04-10T13:29:05.525Z,67.70
2023-04-10T13:31:36.565Z,67.80
2023-04-10T13:34:07.616Z,68.20
2023-04-10T13:36:38.697Z,69.00
2023-04-10T13:39:09.806Z,69.30
2023-04-10T13:41:42.148Z,69.50
2023-04-10T13:44:13.156Z,69.50
2023-04-10T13:46:44.162Z,69.70
2023-04-10T13:49:16.573Z,69.70
2023-04-10T13:51:48.868Z,70.00
2023-04-10T13:54:19.893Z,69.90
2023-04-10T13:56:51.661Z,69.90
2023-04-10T13:59:22.848Z,69.10
2023-04-10T14:01:53.936Z,69.50
2023-04-10T14:04:25.002Z,69.70
2023-04-10T14:06:57.339Z,69.90
2023-04-10T14:09:28.352Z,69.80
2023-04-10T14:11:59.322Z,70.00
2023-04-10T14:14:30.398Z,69.80
2023-04-10T14:17:01.390Z,69.80
2023-04-10T14:19:32.332Z,69.80
2023-04-10T14:22:03.364Z,69.60
2023-04-10T14:24:34.443Z,69.20
2023-04-10T14:27:05.489Z,69.30
2023-04-10T14:29:39.092Z,69.20
2023-04-10T14:32:09.060Z,69.30
2023-04-10T14:34:40.444Z,69.00
2023-04-10T14:37:12.970Z,69.30
2023-04-10T14:39:43.995Z,70.40
2023-04-10T14:42:15.295Z,69.10
2023-04-10T14:44:46.301Z,69.30
2023-04-10T14:47:17.834Z,69.30
2023-04-10T14:49:48.818Z,69.20
2023-04-10T14:52:20.048Z,69.40
2023-04-10T14:54:51.079Z,69.30
2023-04-10T14:57:30.763Z,69.20
2023-04-10T15:00:14.396Z,69.30
2023-04-10T15:02:58.982Z,69.10
2023-04-10T15:05:42.057Z,69.00
2023-04-10T15:08:12.499Z,69.60
2023-04-10T15:10:43.550Z,68.40
2023-04-10T15:13:14.520Z,68.40
2023-04-10T15:15:46.679Z,68.60
2023-04-10T15:18:19.069Z,68.80
2023-04-10T15:20:50.160Z,68.50
2023-04-10T15:23:24.897Z,68.60
2023-04-10T15:25:58.003Z,68.70
2023-04-10T15:28:30.164Z,68.80
2023-04-10T15:31:03.569Z,69.00
2023-04-10T15:33:35.866Z,69.00
2023-04-10T15:36:07.670Z,69.20
2023-04-10T15:38:42.221Z,69.30
2023-04-10T15:41:20.656Z,69.60
2023-04-10T15:43:53.613Z,69.90
2023-04-10T15:46:24.714Z,70.00
2023-04-10T15:49:29.594Z,70.00
2023-04-10T15:52:10.603Z,70.30
2023-04-10T15:54:29.727Z,70.40
2023-04-10T15:57:01.843Z,70.60
2023-04-10T15:59:34.010Z,70.90
2023-04-10T16:02:08.661Z,71.00
2023-04-10T16:04:40.015Z,71.30
2023-04-10T16:07:13.138Z,71.20
2023-04-10T16:09:43.722Z,71.20
2023-04-10T16:12:15.022Z,71.30
2023-04-10T16:14:55.478Z,71.30
2023-04-10T16:17:44.162Z,71.40
2023-04-10T16:20:18.360Z,71.50
2023-04-10T16:22:50.524Z,71.50
2023-04-10T16:25:22.033Z,72.00
2023-04-10T16:28:01.604Z,71.30
2023-04-10T16:30:35.706Z,71.10
2023-04-10T16:33:09.724Z,71.30
2023-04-10T16:35:40.820Z,71.40
2023-04-10T16:38:14.733Z,71.50
2023-04-10T16:40:45.826Z,71.60
2023-04-10T16:43:18.066Z,71.80
2023-04-10T16:45:53.014Z,71.60
2023-04-10T16:48:26.860Z,71.70
2023-04-10T16:51:01.378Z,72.00
2023-04-10T16:53:32.482Z,72.20
2023-04-10T16:56:05.146Z,72.40
2023-04-10T16:58:38.076Z,72.10
2023-04-10T17:01:20.180Z,72.10
2023-04-10T17:03:51.525Z,72.00
2023-04-10T17:06:22.838Z,71.70
2023-04-10T17:08:54.200Z,71.90
2023-04-10T17:11:25.268Z,71.90
2023-04-10T17:13:56.246Z,71.90
2023-04-10T17:16:27.211Z,72.20
2023-04-10T17:18:58.189Z,71.60
2023-04-10T17:21:29.188Z,71.40
2023-04-10T17:24:00.201Z,71.40
2023-04-10T17:26:31.821Z,71.60
2023-04-10T17:29:02.971Z,71.60
2023-04-10T17:31:35.819Z,71.90
2023-04-10T17:34:09.924Z,71.80
2023-04-10T17:36:42.214Z,71.60
2023-04-10T17:39:13.268Z,71.80
2023-04-10T17:41:44.273Z,71.80
2023-04-10T17:44:18.593Z,71.90
2023-04-10T17:46:49.215Z,71.90
2023-04-10T17:49:20.278Z,71.80
2023-04-10T17:51:54.325Z,71.80
2023-04-10T17:54:25.311Z,71.80
2023-04-10T17:56:56.298Z,71.90
2023-04-10T17:59:27.265Z,71.90
2023-04-10T18:01:58.247Z,71.70
2023-04-10T18:04:32.160Z,71.80
2023-04-10T18:07:06.285Z,71.80
2023-04-10T18:09:41.384Z,71.90
2023-04-10T18:12:16.367Z,72.10
2023-04-10T18:14:49.678Z,72.20
2023-04-10T18:17:20.689Z,72.30
2023-04-10T18:19:53.173Z,72.60
2023-04-10T18:22:24.216Z,72.60
2023-04-10T18:24:56.180Z,72.50
2023-04-10T18:27:28.079Z,72.80
2023-04-10T18:30:00.178Z,73.10
2023-04-10T18:32:31.214Z,73.20
2023-04-10T18:35:03.612Z,73.20
2023-04-10T18:37:35.210Z,73.00
2023-04-10T18:40:15.459Z,73.30
2023-04-10T18:42:38.602Z,73.30
2023-04-10T18:45:10.651Z,73.40
2023-04-10T18:47:41.634Z,73.60
2023-04-10T18:50:13.366Z,73.40
2023-04-10T18:52:44.352Z,73.70
2023-04-10T18:55:15.541Z,73.60
2023-04-10T18:57:46.531Z,73.80
2023-04-10T19:00:18.145Z,74.20
2023-04-10T19:02:52.060Z,74.50
2023-04-10T19:05:23.101Z,74.80
2023-04-10T19:08:03.556Z,74.40
2023-04-10T19:10:26.832Z,74.40
2023-04-10T19:12:58.417Z,74.60
2023-04-10T19:15:29.476Z,74.60
2023-04-10T19:18:00.549Z,74.90
2023-04-10T19:20:50.810Z,74.70
2023-04-10T19:23:03.830Z,74.70
2023-04-10T19:25:34.970Z,74.80
2023-04-10T19:28:05.984Z,74.90
2023-04-10T19:30:37.156Z,75.20
2023-04-10T19:33:08.177Z,75.30
2023-04-10T19:35:39.207Z,75.80
2023-04-10T19:38:10.236Z,75.70
2023-04-10T19:40:41.207Z,75.50
2023-04-10T19:43:12.278Z,75.90
2023-04-10T19:45:43.213Z,75.50
2023-04-10T19:48:15.562Z,75.40
2023-04-10T19:50:46.538Z,75.60
2023-04-10T19:53:17.492Z,75.60
2023-04-10T19:55:48.600Z,75.80
2023-04-10T19:58:39.002Z,75.80
2023-04-10T20:00:53.095Z,76.00
2023-04-10T20:03:25.685Z,76.10
2023-04-10T20:05:58.194Z,76.30
2023-04-10T20:08:29.188Z,76.20
2023-04-10T20:11:00.571Z,76.00
2023-04-10T20:13:31.910Z,76.30
2023-04-10T20:16:02.998Z,76.50
2023-04-10T20:18:34.848Z,77.00
2023-04-10T20:21:06.068Z,77.00
2023-04-10T20:23:37.159Z,77.20
2023-04-10T20:26:08.359Z,77.40
2023-04-10T20:28:39.429Z,77.40
2023-04-10T20:31:15.841Z,77.60
2023-04-10T20:33:45.614Z,77.60
2023-04-10T20:36:16.588Z,77.30
2023-04-10T20:38:47.742Z,77.70
2023-04-10T20:41:18.711Z,77.90
2023-04-10T20:43:49.668Z,78.20
2023-04-10T20:46:20.674Z,78.30
2023-04-10T20:48:51.741Z,78.70
2023-04-10T20:51:22.782Z,78.70
2023-04-10T20:53:53.751Z,79.80
2023-04-10T20:56:32.823Z,79.20
2023-04-10T20:58:57.329Z,79.00
2023-04-10T21:01:28.356Z,79.00
2023-04-10T21:04:00.097Z,79.40
2023-04-10T21:06:31.375Z,79.50
2023-04-10T21:09:02.438Z,80.00
2023-04-10T21:11:33.419Z,79.70
2023-04-10T21:14:04.537Z,80.00
2023-04-10T21:16:37.099Z,79.90
2023-04-10T21:19:08.077Z,79.90
2023-04-10T21:21:39.039Z,79.90
2023-04-10T21:24:10.053Z,80.00
2023-04-10T21:26:41.009Z,80.00
2023-04-10T21:29:11.992Z,79.90
2023-04-10T21:31:43.042Z,80.00
2023-04-10T21:34:14.269Z,79.90
2023-04-10T21:36:45.227Z,79.70
2023-04-10T21:39:16.306Z,79.70
2023-04-10T21:41:47.321Z,79.70
2023-04-10T21:44:18.433Z,79.70
2023-04-10T21:46:49.544Z,79.60
2023-04-10T21:49:20.538Z,79.40
2023-04-10T21:51:51.532Z,79.60
2023-04-10T21:54:22.703Z,79.30
2023-04-10T21:56:53.713Z,79.60
2023-04-10T21:59:24.663Z,79.40
2023-04-10T22:01:55.829Z,79.30
2023-04-10T22:04:27.100Z,79.10
2023-04-10T22:06:58.087Z,79.30
2023-04-10T22:09:29.070Z,79.30
2023-04-10T22:12:00.142Z,79.70
2023-04-10T22:14:31.150Z,79.70
2023-04-10T22:17:02.169Z,79.90
2023-04-10T22:19:33.551Z,80.00
2023-04-10T22:22:04.526Z,80.10
2023-04-10T22:24:35.506Z,80.00
2023-04-10T22:27:06.494Z,80.00
2023-04-10T22:29:38.111Z,80.00
2023-04-10T22:32:09.285Z,80.00
2023-04-10T22:34:40.239Z,80.00
2023-04-10T22:37:11.236Z,79.70
2023-04-10T22:39:42.194Z,79.60
2023-04-10T22:42:13.554Z,79.80
2023-04-10T22:44:44.526Z,79.70
2023-04-10T22:47:15.498Z,79.80
2023-04-10T22:49:46.754Z,79.90
2023-04-10T22:52:17.713Z,79.50
2023-04-10T22:54:48.830Z,79.80
2023-04-10T22:57:19.896Z,79.30
2023-04-10T22:59:50.838Z,79.50
2023-04-10T23:02:21.879Z,79.70
2023-04-10T23:04:52.918Z,79.30
2023-04-10T23:07:24.076Z,79.30
2023-04-10T23:09:55.029Z,79.40
2023-04-10T23:12:26.095Z,79.40
2023-04-10T23:14:57.082Z,79.70
2023-04-10T23:17:28.046Z,79.50
2023-04-10T23:19:59.041Z,79.70
2023-04-10T23:22:31.750Z,79.60
2023-04-10T23:25:02.702Z,79.80
2023-04-10T23:27:33.644Z,79.50
2023-04-10T23:30:05.195Z,79.00
2023-04-10T23:32:36.144Z,79.30
2023-04-10T23:35:07.625Z,79.30
2023-04-10T23:37:38.687Z,79.60
2023-04-10T23:40:11.069Z,79.90
2023-04-10T23:42:42.041Z,79.80
2023-04-10T23:45:13.804Z,79.40
2023-04-10T23:47:44.861Z,79.50
2023-04-10T23:50:15.852Z,81.30
2023-04-10T23:52:51.736Z,80.20
2023-04-10T23:55:22.859Z,80.40
2023-04-10T23:57:53.905Z,80.20
